sensor_id;sensor_type;location;lat;lon;timestamp;P1;durP1;ratioP1;P2;durP2;ratioP2
66667;SDS011;57205;51.438;-2.006;2024-02-15T00:00:16;4.20;;;2.33;;
66667;SDS011;57205;51.438;-2.006;2024-02-15T00:02:42;3.70;;;2.35;;
66667;SDS011;57205;51.438;-2.006;2024-02-15T00:05:10;4.95;;;2.30;;
66667;SDS011;57205;51.438;-2.006;2024-02-15T00:07:36;4.40;;;2.70;;
66667;SDS011;57205;51.438;-2.006;2024-02-15T00:10:01;5.78;;;2.30;;
66667;SDS011;57205;51.438;-2.006;2024-02-15T00:12:29;4.13;;;2.55;;
66667;SDS011;57205;51.438;-2.006;2024-02-15T00:14:55;6.03;;;2.70;;
66667;SDS011;57205;51.438;-2.006;2024-02-15T00:17:23;5.63;;;2.58;;
66667;SDS011;57205;51.438;-2.006;2024-02-15T00:19:49;4.47;;;2.90;;
66667;SDS011;57205;51.438;-2.006;2024-02-15T00:22:15;4.78;;;2.88;;
66667;SDS011;57205;51.438;-2.006;2024-02-15T00:24:40;7.07;;;3.05;;
66667;SDS011;57205;51.438;-2.006;2024-02-15T00:27:07;4.38;;;2.70;;
66667;SDS011;57205;51.438;-2.006;2024-02-15T00:29:33;5.55;;;3.38;;
66667;SDS011;57205;51.438;-2.006;2024-02-15T00:31:59;5.05;;;3.03;;
66667;SDS011;57205;51.438;-2.006;2024-02-15T00:34:26;5.30;;;2.72;;
66667;SDS011;57205;51.438;-2.006;2024-02-15T00:36:51;4.63;;;2.92;;
66667;SDS011;57205;51.438;-2.006;2024-02-15T00:39:17;5.35;;;3.17;;
66667;SDS011;57205;51.438;-2.006;2024-02-15T00:41:43;5.22;;;3.15;;
66667;SDS011;57205;51.438;-2.006;2024-02-15T00:44:10;7.72;;;3.08;;
66667;SDS011;57205;51.438;-2.006;2024-02-15T00:46:36;4.95;;;3.00;;
66667;SDS011;57205;51.438;-2.006;2024-02-15T00:49:02;4.93;;;2.80;;
66667;SDS011;57205;51.438;-2.006;2024-02-15T00:51:31;5.88;;;3.25;;
66667;SDS011;57205;51.438;-2.006;2024-02-15T00:53:57;4.10;;;2.60;;
66667;SDS011;57205;51.438;-2.006;2024-02-15T00:56:23;4.57;;;2.63;;
66667;SDS011;57205;51.438;-2.006;2024-02-15T00:58:49;3.53;;;2.03;;
66667;SDS011;57205;51.438;-2.006;2024-02-15T01:01:15;3.60;;;2.05;;
66667;SDS011;57205;51.438;-2.006;2024-02-15T01:03:40;3.33;;;1.90;;
66667;SDS011;57205;51.438;-2.006;2024-02-15T01:06:05;3.10;;;1.70;;
66667;SDS011;57205;51.438;-2.006;2024-02-15T01:08:31;4.25;;;2.10;;
66667;SDS011;57205;51.438;-2.006;2024-02-15T01:10:58;5.10;;;1.80;;
66667;SDS011;57205;51.438;-2.006;2024-02-15T01:13:24;3.50;;;1.80;;
66667;SDS011;57205;51.438;-2.006;2024-02-15T01:15:50;4.97;;;2.00;;
66667;SDS011;57205;51.438;-2.006;2024-02-15T01:18:15;3.25;;;1.70;;
66667;SDS011;57205;51.438;-2.006;2024-02-15T01:20:41;2.72;;;1.35;;
66667;SDS011;57205;51.438;-2.006;2024-02-15T01:23:06;2.70;;;1.48;;
66667;SDS011;57205;51.438;-2.006;2024-02-15T01:25:32;3.15;;;1.30;;
66667;SDS011;57205;51.438;-2.006;2024-02-15T01:27:58;1.85;;;1.00;;
66667;SDS011;57205;51.438;-2.006;2024-02-15T01:30:27;1.50;;;0.80;;
66667;SDS011;57205;51.438;-2.006;2024-02-15T01:32:53;1.60;;;0.88;;
66667;SDS011;57205;51.438;-2.006;2024-02-15T01:35:19;1.25;;;0.60;;
66667;SDS011;57205;51.438;-2.006;2024-02-15T01:37:44;0.80;;;0.47;;
66667;SDS011;57205;51.438;-2.006;2024-02-15T01:40:10;1.00;;;0.50;;
66667;SDS011;57205;51.438;-2.006;2024-02-15T01:42:38;1.20;;;0.65;;
66667;SDS011;57205;51.438;-2.006;2024-02-15T01:45:04;0.98;;;0.52;;
66667;SDS011;57205;51.438;-2.006;2024-02-15T01:47:30;1.52;;;0.40;;
66667;SDS011;57205;51.438;-2.006;2024-02-15T01:49:56;1.02;;;0.50;;
66667;SDS011;57205;51.438;-2.006;2024-02-15T01:52:22;1.00;;;0.40;;
66667;SDS011;57205;51.438;-2.006;2024-02-15T01:54:52;0.85;;;0.70;;
66667;SDS011;57205;51.438;-2.006;2024-02-15T01:57:19;0.68;;;0.50;;
66667;SDS011;57205;51.438;-2.006;2024-02-15T01:59:46;1.52;;;0.77;;
66667;SDS011;57205;51.438;-2.006;2024-02-15T02:02:12;1.15;;;0.60;;
66667;SDS011;57205;51.438;-2.006;2024-02-15T02:04:40;1.17;;;0.70;;
66667;SDS011;57205;51.438;-2.006;2024-02-15T02:07:06;2.13;;;0.70;;
66667;SDS011;57205;51.438;-2.006;2024-02-15T02:09:32;1.17;;;0.68;;
66667;SDS011;57205;51.438;-2.006;2024-02-15T02:11:58;1.42;;;0.82;;
66667;SDS011;57205;51.438;-2.006;2024-02-15T02:14:24;1.65;;;1.10;;
66667;SDS011;57205;51.438;-2.006;2024-02-15T02:16:50;1.05;;;0.80;;
66667;SDS011;57205;51.438;-2.006;2024-02-15T02:19:16;2.85;;;0.93;;
66667;SDS011;57205;51.438;-2.006;2024-02-15T02:21:42;1.35;;;0.80;;
66667;SDS011;57205;51.438;-2.006;2024-02-15T02:24:17;2.65;;;0.80;;
66667;SDS011;57205;51.438;-2.006;2024-02-15T02:26:47;1.75;;;0.90;;
66667;SDS011;57205;51.438;-2.006;2024-02-15T02:29:14;2.83;;;0.80;;
66667;SDS011;57205;51.438;-2.006;2024-02-15T02:31:40;1.10;;;0.60;;
66667;SDS011;57205;51.438;-2.006;2024-02-15T02:34:07;1.45;;;0.85;;
66667;SDS011;57205;51.438;-2.006;2024-02-15T02:36:33;1.30;;;0.68;;
66667;SDS011;57205;51.438;-2.006;2024-02-15T02:38:59;1.67;;;0.70;;
66667;SDS011;57205;51.438;-2.006;2024-02-15T02:41:25;0.80;;;0.60;;
66667;SDS011;57205;51.438;-2.006;2024-02-15T02:43:56;1.15;;;0.82;;
66667;SDS011;57205;51.438;-2.006;2024-02-15T02:46:22;2.33;;;0.95;;
66667;SDS011;57205;51.438;-2.006;2024-02-15T02:48:48;1.33;;;0.80;;
66667;SDS011;57205;51.438;-2.006;2024-02-15T02:51:16;1.63;;;0.85;;
66667;SDS011;57205;51.438;-2.006;2024-02-15T02:53:42;3.20;;;1.10;;
66667;SDS011;57205;51.438;-2.006;2024-02-15T02:56:08;2.22;;;1.20;;
66667;SDS011;57205;51.438;-2.006;2024-02-15T02:58:34;1.40;;;0.90;;
66667;SDS011;57205;51.438;-2.006;2024-02-15T03:00:59;1.80;;;0.93;;
66667;SDS011;57205;51.438;-2.006;2024-02-15T03:03:25;1.83;;;1.10;;
66667;SDS011;57205;51.438;-2.006;2024-02-15T03:05:51;2.10;;;1.10;;
66667;SDS011;57205;51.438;-2.006;2024-02-15T03:08:17;2.22;;;1.30;;
66667;SDS011;57205;51.438;-2.006;2024-02-15T03:10:42;2.30;;;1.30;;
66667;SDS011;57205;51.438;-2.006;2024-02-15T03:13:08;2.15;;;1.30;;
66667;SDS011;57205;51.438;-2.006;2024-02-15T03:15:34;2.50;;;1.50;;
66667;SDS011;57205;51.438;-2.006;2024-02-15T03:18:00;3.22;;;1.33;;
66667;SDS011;57205;51.438;-2.006;2024-02-15T03:20:31;2.45;;;1.40;;
66667;SDS011;57205;51.438;-2.006;2024-02-15T03:22:59;3.15;;;1.77;;
66667;SDS011;57205;51.438;-2.006;2024-02-15T03:25:26;4.35;;;1.70;;
66667;SDS011;57205;51.438;-2.006;2024-02-15T03:27:54;3.08;;;1.63;;
66667;SDS011;57205;51.438;-2.006;2024-02-15T03:30:21;3.35;;;1.90;;
66667;SDS011;57205;51.438;-2.006;2024-02-15T03:32:51;4.35;;;2.42;;
66667;SDS011;57205;51.438;-2.006;2024-02-15T03:35:19;3.92;;;1.98;;
66667;SDS011;57205;51.438;-2.006;2024-02-15T03:37:47;3.17;;;1.60;;
66667;SDS011;57205;51.438;-2.006;2024-02-15T03:40:16;3.80;;;1.60;;
66667;SDS011;57205;51.438;-2.006;2024-02-15T03:42:41;5.03;;;1.90;;
66667;SDS011;57205;51.438;-2.006;2024-02-15T03:45:07;5.00;;;1.98;;
66667;SDS011;57205;51.438;-2.006;2024-02-15T03:47:33;4.18;;;2.08;;
66667;SDS011;57205;51.438;-2.006;2024-02-15T03:50:01;4.03;;;2.00;;
66667;SDS011;57205;51.438;-2.006;2024-02-15T03:52:30;2.88;;;1.55;;
66667;SDS011;57205;51.438;-2.006;2024-02-15T03:54:56;3.80;;;1.70;;
66667;SDS011;57205;51.438;-2.006;2024-02-15T03:57:22;3.45;;;1.73;;
66667;SDS011;57205;51.438;-2.006;2024-02-15T03:59:48;3.47;;;1.73;;
66667;SDS011;57205;51.438;-2.006;2024-02-15T04:02:19;3.70;;;1.58;;
66667;SDS011;57205;51.438;-2.006;2024-02-15T04:04:51;2.83;;;1.48;;
66667;SDS011;57205;51.438;-2.006;2024-02-15T04:07:19;3.22;;;1.60;;
66667;SDS011;57205;51.438;-2.006;2024-02-15T04:09:45;4.55;;;1.52;;
66667;SDS011;57205;51.438;-2.006;2024-02-15T04:12:11;2.70;;;1.38;;
66667;SDS011;57205;51.438;-2.006;2024-02-15T04:14:37;3.63;;;1.60;;
66667;SDS011;57205;51.438;-2.006;2024-02-15T04:17:06;3.03;;;1.75;;
66667;SDS011;57205;51.438;-2.006;2024-02-15T04:19:32;4.22;;;2.10;;
66667;SDS011;57205;51.438;-2.006;2024-02-15T04:21:57;3.58;;;1.60;;
66667;SDS011;57205;51.438;-2.006;2024-02-15T04:24:24;3.70;;;1.70;;
66667;SDS011;57205;51.438;-2.006;2024-02-15T04:26:50;4.38;;;1.80;;
66667;SDS011;57205;51.438;-2.006;2024-02-15T04:29:16;4.75;;;1.70;;
66667;SDS011;57205;51.438;-2.006;2024-02-15T04:31:45;6.80;;;1.75;;
66667;SDS011;57205;51.438;-2.006;2024-02-15T04:34:17;3.90;;;1.45;;
66667;SDS011;57205;51.438;-2.006;2024-02-15T04:36:46;4.45;;;2.15;;
66667;SDS011;57205;51.438;-2.006;2024-02-15T04:39:18;3.58;;;1.58;;
66667;SDS011;57205;51.438;-2.006;2024-02-15T04:41:53;4.88;;;1.85;;
66667;SDS011;57205;51.438;-2.006;2024-02-15T04:44:19;4.95;;;2.53;;
66667;SDS011;57205;51.438;-2.006;2024-02-15T04:46:52;6.22;;;1.83;;
66667;SDS011;57205;51.438;-2.006;2024-02-15T04:49:17;4.72;;;2.05;;
66667;SDS011;57205;51.438;-2.006;2024-02-15T04:51:43;4.68;;;1.92;;
66667;SDS011;57205;51.438;-2.006;2024-02-15T04:54:09;4.85;;;2.13;;
66667;SDS011;57205;51.438;-2.006;2024-02-15T04:56:41;5.32;;;1.83;;
66667;SDS011;57205;51.438;-2.006;2024-02-15T04:59:09;5.55;;;2.00;;
66667;SDS011;57205;51.438;-2.006;2024-02-15T05:01:41;2.97;;;1.55;;
66667;SDS011;57205;51.438;-2.006;2024-02-15T05:04:10;7.75;;;1.83;;
66667;SDS011;57205;51.438;-2.006;2024-02-15T05:06:39;5.50;;;2.13;;
66667;SDS011;57205;51.438;-2.006;2024-02-15T05:09:05;4.00;;;1.92;;
66667;SDS011;57205;51.438;-2.006;2024-02-15T05:11:51;6.28;;;2.15;;
66667;SDS011;57205;51.438;-2.006;2024-02-15T05:14:17;4.07;;;1.98;;
66667;SDS011;57205;51.438;-2.006;2024-02-15T05:16:48;5.15;;;2.30;;
66667;SDS011;57205;51.438;-2.006;2024-02-15T05:19:17;9.48;;;5.07;;
66667;SDS011;57205;51.438;-2.006;2024-02-15T05:21:46;6.85;;;2.45;;
66667;SDS011;57205;51.438;-2.006;2024-02-15T05:24:15;6.60;;;2.28;;
66667;SDS011;57205;51.438;-2.006;2024-02-15T05:26:43;6.47;;;2.67;;
66667;SDS011;57205;51.438;-2.006;2024-02-15T05:29:12;5.10;;;2.58;;
66667;SDS011;57205;51.438;-2.006;2024-02-15T05:31:38;7.97;;;3.05;;
66667;SDS011;57205;51.438;-2.006;2024-02-15T05:34:05;9.27;;;3.75;;
66667;SDS011;57205;51.438;-2.006;2024-02-15T05:36:36;13.23;;;3.92;;
66667;SDS011;57205;51.438;-2.006;2024-02-15T05:39:03;7.25;;;2.85;;
66667;SDS011;57205;51.438;-2.006;2024-02-15T05:41:30;11.20;;;3.83;;
66667;SDS011;57205;51.438;-2.006;2024-02-15T05:43:57;7.25;;;3.08;;
66667;SDS011;57205;51.438;-2.006;2024-02-15T05:46:23;7.72;;;3.33;;
66667;SDS011;57205;51.438;-2.006;2024-02-15T05:48:49;8.70;;;3.08;;
66667;SDS011;57205;51.438;-2.006;2024-02-15T05:51:16;8.80;;;3.70;;
66667;SDS011;57205;51.438;-2.006;2024-02-15T05:53:41;6.45;;;2.95;;
66667;SDS011;57205;51.438;-2.006;2024-02-15T05:56:09;13.13;;;4.03;;
66667;SDS011;57205;51.438;-2.006;2024-02-15T05:58:38;7.95;;;4.30;;
66667;SDS011;57205;51.438;-2.006;2024-02-15T06:01:07;12.18;;;3.75;;
66667;SDS011;57205;51.438;-2.006;2024-02-15T06:03:35;10.10;;;4.30;;
66667;SDS011;57205;51.438;-2.006;2024-02-15T06:06:03;11.05;;;3.80;;
66667;SDS011;57205;51.438;-2.006;2024-02-15T06:08:33;8.80;;;3.78;;
66667;SDS011;57205;51.438;-2.006;2024-02-15T06:10:59;12.15;;;4.22;;
66667;SDS011;57205;51.438;-2.006;2024-02-15T06:13:25;10.50;;;3.47;;
66667;SDS011;57205;51.438;-2.006;2024-02-15T06:15:51;9.32;;;3.83;;
66667;SDS011;57205;51.438;-2.006;2024-02-15T06:18:20;17.35;;;4.40;;
66667;SDS011;57205;51.438;-2.006;2024-02-15T06:20:54;13.20;;;4.15;;
66667;SDS011;57205;51.438;-2.006;2024-02-15T06:23:22;10.93;;;3.55;;
66667;SDS011;57205;51.438;-2.006;2024-02-15T06:25:50;15.35;;;3.75;;
66667;SDS011;57205;51.438;-2.006;2024-02-15T06:28:18;16.98;;;4.15;;
66667;SDS011;57205;51.438;-2.006;2024-02-15T06:31:02;10.60;;;5.00;;
66667;SDS011;57205;51.438;-2.006;2024-02-15T06:33:45;12.30;;;4.95;;
66667;SDS011;57205;51.438;-2.006;2024-02-15T06:36:39;17.58;;;5.00;;
66667;SDS011;57205;51.438;-2.006;2024-02-15T06:39:32;16.95;;;4.53;;
66667;SDS011;57205;51.438;-2.006;2024-02-15T06:42:07;14.35;;;4.07;;
66667;SDS011;57205;51.438;-2.006;2024-02-15T06:44:33;15.18;;;4.25;;
66667;SDS011;57205;51.438;-2.006;2024-02-15T06:46:59;17.10;;;5.13;;
66667;SDS011;57205;51.438;-2.006;2024-02-15T06:49:25;11.00;;;3.78;;
66667;SDS011;57205;51.438;-2.006;2024-02-15T06:51:51;11.13;;;4.70;;
66667;SDS011;57205;51.438;-2.006;2024-02-15T06:54:17;12.40;;;4.20;;
66667;SDS011;57205;51.438;-2.006;2024-02-15T06:56:43;11.15;;;5.22;;
66667;SDS011;57205;51.438;-2.006;2024-02-15T06:59:11;10.80;;;5.47;;
66667;SDS011;57205;51.438;-2.006;2024-02-15T07:01:40;15.45;;;4.40;;
66667;SDS011;57205;51.438;-2.006;2024-02-15T07:04:07;12.32;;;4.25;;
66667;SDS011;57205;51.438;-2.006;2024-02-15T07:06:33;14.85;;;4.30;;
66667;SDS011;57205;51.438;-2.006;2024-02-15T07:09:00;10.68;;;4.15;;
66667;SDS011;57205;51.438;-2.006;2024-02-15T07:11:25;8.77;;;4.07;;
66667;SDS011;57205;51.438;-2.006;2024-02-15T07:13:50;10.90;;;3.75;;
66667;SDS011;57205;51.438;-2.006;2024-02-15T07:16:19;9.63;;;3.17;;
66667;SDS011;57205;51.438;-2.006;2024-02-15T07:18:47;16.52;;;4.28;;
66667;SDS011;57205;51.438;-2.006;2024-02-15T07:21:12;7.35;;;2.63;;
66667;SDS011;57205;51.438;-2.006;2024-02-15T07:23:41;9.20;;;2.88;;
66667;SDS011;57205;51.438;-2.006;2024-02-15T07:26:07;8.82;;;3.00;;
66667;SDS011;57205;51.438;-2.006;2024-02-15T07:28:33;8.73;;;3.17;;
66667;SDS011;57205;51.438;-2.006;2024-02-15T07:30:59;16.13;;;4.97;;
66667;SDS011;57205;51.438;-2.006;2024-02-15T07:33:27;12.63;;;3.92;;
66667;SDS011;57205;51.438;-2.006;2024-02-15T07:35:54;6.32;;;3.20;;
66667;SDS011;57205;51.438;-2.006;2024-02-15T07:38:22;8.95;;;3.90;;
66667;SDS011;57205;51.438;-2.006;2024-02-15T07:40:48;11.25;;;3.75;;
66667;SDS011;57205;51.438;-2.006;2024-02-15T07:43:14;10.57;;;4.93;;
66667;SDS011;57205;51.438;-2.006;2024-02-15T07:45:41;8.95;;;4.55;;
66667;SDS011;57205;51.438;-2.006;2024-02-15T07:48:07;8.50;;;4.25;;
66667;SDS011;57205;51.438;-2.006;2024-02-15T07:50:33;7.55;;;4.53;;
66667;SDS011;57205;51.438;-2.006;2024-02-15T07:52:58;9.15;;;4.60;;
66667;SDS011;57205;51.438;-2.006;2024-02-15T07:55:24;11.23;;;4.97;;
66667;SDS011;57205;51.438;-2.006;2024-02-15T07:57:50;13.05;;;5.20;;
66667;SDS011;57205;51.438;-2.006;2024-02-15T08:00:16;10.75;;;4.47;;
66667;SDS011;57205;51.438;-2.006;2024-02-15T08:02:44;13.63;;;4.40;;
66667;SDS011;57205;51.438;-2.006;2024-02-15T08:05:09;11.25;;;5.03;;
66667;SDS011;57205;51.438;-2.006;2024-02-15T08:07:37;10.93;;;5.07;;
66667;SDS011;57205;51.438;-2.006;2024-02-15T08:10:09;9.02;;;4.78;;
66667;SDS011;57205;51.438;-2.006;2024-02-15T08:12:41;12.68;;;4.22;;
66667;SDS011;57205;51.438;-2.006;2024-02-15T08:15:08;10.32;;;4.78;;
66667;SDS011;57205;51.438;-2.006;2024-02-15T08:17:37;11.80;;;4.60;;
66667;SDS011;57205;51.438;-2.006;2024-02-15T08:20:07;10.57;;;4.40;;
66667;SDS011;57205;51.438;-2.006;2024-02-15T08:22:36;9.75;;;4.30;;
66667;SDS011;57205;51.438;-2.006;2024-02-15T08:25:05;12.75;;;4.43;;
66667;SDS011;57205;51.438;-2.006;2024-02-15T08:27:43;12.73;;;4.85;;
66667;SDS011;57205;51.438;-2.006;2024-02-15T08:30:12;8.85;;;3.78;;
66667;SDS011;57205;51.438;-2.006;2024-02-15T08:32:39;9.02;;;3.53;;
66667;SDS011;57205;51.438;-2.006;2024-02-15T08:35:07;16.17;;;3.88;;
66667;SDS011;57205;51.438;-2.006;2024-02-15T08:37:36;9.93;;;3.50;;
66667;SDS011;57205;51.438;-2.006;2024-02-15T08:40:03;8.27;;;3.45;;
66667;SDS011;57205;51.438;-2.006;2024-02-15T08:42:35;11.82;;;3.30;;
66667;SDS011;57205;51.438;-2.006;2024-02-15T08:45:03;9.13;;;3.28;;
66667;SDS011;57205;51.438;-2.006;2024-02-15T08:47:29;8.45;;;3.38;;
66667;SDS011;57205;51.438;-2.006;2024-02-15T08:49:54;8.32;;;3.38;;
66667;SDS011;57205;51.438;-2.006;2024-02-15T08:52:20;13.48;;;3.30;;
66667;SDS011;57205;51.438;-2.006;2024-02-15T08:54:45;7.63;;;3.72;;
66667;SDS011;57205;51.438;-2.006;2024-02-15T08:57:11;9.23;;;3.42;;
66667;SDS011;57205;51.438;-2.006;2024-02-15T08:59:36;7.72;;;3.35;;
66667;SDS011;57205;51.438;-2.006;2024-02-15T09:02:02;8.88;;;3.42;;
66667;SDS011;57205;51.438;-2.006;2024-02-15T09:04:30;8.95;;;3.50;;
66667;SDS011;57205;51.438;-2.006;2024-02-15T09:06:56;8.90;;;3.45;;
66667;SDS011;57205;51.438;-2.006;2024-02-15T09:09:21;8.23;;;2.80;;
66667;SDS011;57205;51.438;-2.006;2024-02-15T09:11:48;10.65;;;3.45;;
66667;SDS011;57205;51.438;-2.006;2024-02-15T09:14:14;15.68;;;3.67;;
66667;SDS011;57205;51.438;-2.006;2024-02-15T09:16:39;10.05;;;3.05;;
66667;SDS011;57205;51.438;-2.006;2024-02-15T09:19:05;11.75;;;3.22;;
66667;SDS011;57205;51.438;-2.006;2024-02-15T09:21:31;8.02;;;3.17;;
66667;SDS011;57205;51.438;-2.006;2024-02-15T09:23:58;8.60;;;2.75;;
66667;SDS011;57205;51.438;-2.006;2024-02-15T09:26:24;10.82;;;3.50;;
66667;SDS011;57205;51.438;-2.006;2024-02-15T09:28:50;7.95;;;3.25;;
66667;SDS011;57205;51.438;-2.006;2024-02-15T09:31:16;7.65;;;2.53;;
66667;SDS011;57205;51.438;-2.006;2024-02-15T09:33:41;8.68;;;3.40;;
66667;SDS011;57205;51.438;-2.006;2024-02-15T09:36:07;10.98;;;3.22;;
66667;SDS011;57205;51.438;-2.006;2024-02-15T09:38:37;6.47;;;2.58;;
66667;SDS011;57205;51.438;-2.006;2024-02-15T09:41:03;12.90;;;3.15;;
66667;SDS011;57205;51.438;-2.006;2024-02-15T09:43:32;6.43;;;2.67;;
66667;SDS011;57205;51.438;-2.006;2024-02-15T09:45:58;6.72;;;2.58;;
66667;SDS011;57205;51.438;-2.006;2024-02-15T09:48:25;7.55;;;2.47;;
66667;SDS011;57205;51.438;-2.006;2024-02-15T09:50:53;10.65;;;2.97;;
66667;SDS011;57205;51.438;-2.006;2024-02-15T09:53:21;5.47;;;2.33;;
66667;SDS011;57205;51.438;-2.006;2024-02-15T09:56:11;6.90;;;2.17;;
66667;SDS011;57205;51.438;-2.006;2024-02-15T09:58:39;7.57;;;2.10;;
66667;SDS011;57205;51.438;-2.006;2024-02-15T10:01:05;5.10;;;1.75;;
66667;SDS011;57205;51.438;-2.006;2024-02-15T10:03:35;6.43;;;2.10;;
66667;SDS011;57205;51.438;-2.006;2024-02-15T10:06:11;6.93;;;1.90;;
66667;SDS011;57205;51.438;-2.006;2024-02-15T10:08:37;6.38;;;2.45;;
66667;SDS011;57205;51.438;-2.006;2024-02-15T10:14:02;4.32;;;2.00;;
66667;SDS011;57205;51.438;-2.006;2024-02-15T10:16:36;5.90;;;2.00;;
66667;SDS011;57205;51.438;-2.006;2024-02-15T10:19:08;5.32;;;2.25;;
66667;SDS011;57205;51.438;-2.006;2024-02-15T10:24:43;7.32;;;2.40;;
66667;SDS011;57205;51.438;-2.006;2024-02-15T10:27:09;7.18;;;2.50;;
66667;SDS011;57205;51.438;-2.006;2024-02-15T10:29:37;7.88;;;2.25;;
66667;SDS011;57205;51.438;-2.006;2024-02-15T10:32:06;5.90;;;2.92;;
66667;SDS011;57205;51.438;-2.006;2024-02-15T10:34:35;7.20;;;2.30;;
66667;SDS011;57205;51.438;-2.006;2024-02-15T10:37:11;7.85;;;2.30;;
66667;SDS011;57205;51.438;-2.006;2024-02-15T10:39:38;5.43;;;2.67;;
66667;SDS011;57205;51.438;-2.006;2024-02-15T10:42:06;4.68;;;2.08;;
66667;SDS011;57205;51.438;-2.006;2024-02-15T10:44:32;5.53;;;2.35;;
66667;SDS011;57205;51.438;-2.006;2024-02-15T10:47:00;7.22;;;2.15;;
66667;SDS011;57205;51.438;-2.006;2024-02-15T10:49:31;7.93;;;2.55;;
66667;SDS011;57205;51.438;-2.006;2024-02-15T10:51:57;4.70;;;2.30;;
66667;SDS011;57205;51.438;-2.006;2024-02-15T10:57:04;5.75;;;1.95;;
66667;SDS011;57205;51.438;-2.006;2024-02-15T10:59:37;7.13;;;2.40;;
66667;SDS011;57205;51.438;-2.006;2024-02-15T11:02:10;4.60;;;2.00;;
66667;SDS011;57205;51.438;-2.006;2024-02-15T11:04:40;7.55;;;1.90;;
66667;SDS011;57205;51.438;-2.006;2024-02-15T11:07:09;4.68;;;1.90;;
66667;SDS011;57205;51.438;-2.006;2024-02-15T11:09:36;6.00;;;2.00;;
66667;SDS011;57205;51.438;-2.006;2024-02-15T11:12:03;5.90;;;2.03;;
66667;SDS011;57205;51.438;-2.006;2024-02-15T11:14:31;6.75;;;2.13;;
66667;SDS011;57205;51.438;-2.006;2024-02-15T11:17:00;4.72;;;1.85;;
66667;SDS011;57205;51.438;-2.006;2024-02-15T11:22:07;3.38;;;1.40;;
66667;SDS011;57205;51.438;-2.006;2024-02-15T11:27:02;4.45;;;1.90;;
66667;SDS011;57205;51.438;-2.006;2024-02-15T11:32:49;5.22;;;2.22;;
66667;SDS011;57205;51.438;-2.006;2024-02-15T11:35:19;3.97;;;1.60;;
66667;SDS011;57205;51.438;-2.006;2024-02-15T11:40:21;7.70;;;1.60;;
66667;SDS011;57205;51.438;-2.006;2024-02-15T11:42:48;5.68;;;2.03;;
66667;SDS011;57205;51.438;-2.006;2024-02-15T11:45:25;5.15;;;2.03;;
66667;SDS011;57205;51.438;-2.006;2024-02-15T11:47:52;5.15;;;2.40;;
66667;SDS011;57205;51.438;-2.006;2024-02-15T11:50:19;4.50;;;1.40;;
66667;SDS011;57205;51.438;-2.006;2024-02-15T11:52:50;4.97;;;1.38;;
66667;SDS011;57205;51.438;-2.006;2024-02-15T11:55:20;5.10;;;2.13;;
66667;SDS011;57205;51.438;-2.006;2024-02-15T12:00:34;4.82;;;1.75;;
66667;SDS011;57205;51.438;-2.006;2024-02-15T12:03:19;5.05;;;1.90;;
66667;SDS011;57205;51.438;-2.006;2024-02-15T12:06:03;3.72;;;1.70;;
66667;SDS011;57205;51.438;-2.006;2024-02-15T12:08:48;5.32;;;1.88;;
66667;SDS011;57205;51.438;-2.006;2024-02-15T12:11:33;7.47;;;1.85;;
66667;SDS011;57205;51.438;-2.006;2024-02-15T12:14:18;5.05;;;1.52;;
66667;SDS011;57205;51.438;-2.006;2024-02-15T12:17:02;3.35;;;1.58;;
66667;SDS011;57205;51.438;-2.006;2024-02-15T12:19:47;4.80;;;1.60;;
66667;SDS011;57205;51.438;-2.006;2024-02-15T12:22:21;2.90;;;1.73;;
66667;SDS011;57205;51.438;-2.006;2024-02-15T12:24:54;3.63;;;1.50;;
66667;SDS011;57205;51.438;-2.006;2024-02-15T12:27:23;8.95;;;3.10;;
66667;SDS011;57205;51.438;-2.006;2024-02-15T12:29:52;9.20;;;3.13;;
66667;SDS011;57205;51.438;-2.006;2024-02-15T12:32:27;6.15;;;2.05;;
66667;SDS011;57205;51.438;-2.006;2024-02-15T12:34:53;7.97;;;1.88;;
66667;SDS011;57205;51.438;-2.006;2024-02-15T12:37:35;4.78;;;1.90;;
66667;SDS011;57205;51.438;-2.006;2024-02-15T12:40:10;4.80;;;1.60;;
66667;SDS011;57205;51.438;-2.006;2024-02-15T12:42:40;5.63;;;1.65;;
66667;SDS011;57205;51.438;-2.006;2024-02-15T12:45:07;5.45;;;1.90;;
66667;SDS011;57205;51.438;-2.006;2024-02-15T12:47:42;6.10;;;1.75;;
66667;SDS011;57205;51.438;-2.006;2024-02-15T12:50:14;3.28;;;1.67;;
66667;SDS011;57205;51.438;-2.006;2024-02-15T12:52:45;6.57;;;2.20;;
66667;SDS011;57205;51.438;-2.006;2024-02-15T12:55:22;5.25;;;1.42;;
66667;SDS011;57205;51.438;-2.006;2024-02-15T12:57:52;4.63;;;1.60;;
66667;SDS011;57205;51.438;-2.006;2024-02-15T13:00:20;3.10;;;1.70;;
66667;SDS011;57205;51.438;-2.006;2024-02-15T13:02:49;3.10;;;1.65;;
66667;SDS011;57205;51.438;-2.006;2024-02-15T13:05:16;4.20;;;1.77;;
66667;SDS011;57205;51.438;-2.006;2024-02-15T13:07:46;4.05;;;1.77;;
66667;SDS011;57205;51.438;-2.006;2024-02-15T13:10:15;5.82;;;1.80;;
66667;SDS011;57205;51.438;-2.006;2024-02-15T13:12:42;3.70;;;1.52;;
66667;SDS011;57205;51.438;-2.006;2024-02-15T13:15:10;3.30;;;1.50;;
66667;SDS011;57205;51.438;-2.006;2024-02-15T13:17:48;9.23;;;1.60;;
66667;SDS011;57205;51.438;-2.006;2024-02-15T13:20:17;4.28;;;1.58;;
66667;SDS011;57205;51.438;-2.006;2024-02-15T13:22:45;4.78;;;1.38;;
66667;SDS011;57205;51.438;-2.006;2024-02-15T13:25:13;4.60;;;1.67;;
66667;SDS011;57205;51.438;-2.006;2024-02-15T13:27:41;6.95;;;1.80;;
66667;SDS011;57205;51.438;-2.006;2024-02-15T13:30:08;4.70;;;1.75;;
66667;SDS011;57205;51.438;-2.006;2024-02-15T13:32:37;3.05;;;1.42;;
66667;SDS011;57205;51.438;-2.006;2024-02-15T13:35:06;7.38;;;2.20;;
66667;SDS011;57205;51.438;-2.006;2024-02-15T13:37:40;6.55;;;2.03;;
66667;SDS011;57205;51.438;-2.006;2024-02-15T13:40:08;6.57;;;2.17;;
66667;SDS011;57205;51.438;-2.006;2024-02-15T13:42:43;3.53;;;1.80;;
66667;SDS011;57205;51.438;-2.006;2024-02-15T13:47:48;4.90;;;1.60;;
66667;SDS011;57205;51.438;-2.006;2024-02-15T13:50:14;4.22;;;1.80;;
66667;SDS011;57205;51.438;-2.006;2024-02-15T13:52:43;2.92;;;1.50;;
66667;SDS011;57205;51.438;-2.006;2024-02-15T13:55:12;3.90;;;1.70;;
66667;SDS011;57205;51.438;-2.006;2024-02-15T13:57:39;3.40;;;1.77;;
66667;SDS011;57205;51.438;-2.006;2024-02-15T14:00:15;5.47;;;1.95;;
66667;SDS011;57205;51.438;-2.006;2024-02-15T14:02:54;3.65;;;1.50;;
66667;SDS011;57205;51.438;-2.006;2024-02-15T14:05:24;4.18;;;1.58;;
66667;SDS011;57205;51.438;-2.006;2024-02-15T14:07:54;5.00;;;1.75;;
66667;SDS011;57205;51.438;-2.006;2024-02-15T14:10:21;5.22;;;1.70;;
66667;SDS011;57205;51.438;-2.006;2024-02-15T14:12:48;5.90;;;1.70;;
66667;SDS011;57205;51.438;-2.006;2024-02-15T14:15:16;7.95;;;1.80;;
66667;SDS011;57205;51.438;-2.006;2024-02-15T14:17:44;5.10;;;2.25;;
66667;SDS011;57205;51.438;-2.006;2024-02-15T14:20:10;5.07;;;2.38;;
66667;SDS011;57205;51.438;-2.006;2024-02-15T14:22:43;7.88;;;2.00;;
66667;SDS011;57205;51.438;-2.006;2024-02-15T14:25:10;4.57;;;1.60;;
66667;SDS011;57205;51.438;-2.006;2024-02-15T14:27:37;5.97;;;1.95;;
66667;SDS011;57205;51.438;-2.006;2024-02-15T14:30:04;3.72;;;1.40;;
66667;SDS011;57205;51.438;-2.006;2024-02-15T14:32:49;3.90;;;1.77;;
66667;SDS011;57205;51.438;-2.006;2024-02-15T14:35:47;7.75;;;3.35;;
66667;SDS011;57205;51.438;-2.006;2024-02-15T14:38:13;3.38;;;1.52;;
66667;SDS011;57205;51.438;-2.006;2024-02-15T14:40:41;4.35;;;1.63;;
66667;SDS011;57205;51.438;-2.006;2024-02-15T14:43:08;4.40;;;1.80;;
66667;SDS011;57205;51.438;-2.006;2024-02-15T14:45:37;5.63;;;1.67;;
66667;SDS011;57205;51.438;-2.006;2024-02-15T14:48:03;9.85;;;1.95;;
66667;SDS011;57205;51.438;-2.006;2024-02-15T14:50:29;7.45;;;2.22;;
66667;SDS011;57205;51.438;-2.006;2024-02-15T14:52:55;5.55;;;2.25;;
66667;SDS011;57205;51.438;-2.006;2024-02-15T14:55:21;4.07;;;1.90;;
66667;SDS011;57205;51.438;-2.006;2024-02-15T14:57:47;4.68;;;1.63;;
66667;SDS011;57205;51.438;-2.006;2024-02-15T15:00:13;5.05;;;1.70;;
66667;SDS011;57205;51.438;-2.006;2024-02-15T15:02:42;7.63;;;2.20;;
66667;SDS011;57205;51.438;-2.006;2024-02-15T15:05:14;9.95;;;1.95;;